sensor_id;sensor_type;location;lat;lon;timestamp;P1;P2;P0
42510;PMS7003;28141;51.120;17.114;2023-04-29T00:00:51;10;4;3
42510;PMS7003;28141;51.120;17.114;2023-04-29T00:04:05;11;4;3
42510;PMS7003;28141;51.120;17.114;2023-04-29T00:07:20;11;5;3
42510;PMS7003;28141;51.120;17.114;2023-04-29T00:10:34;11;4;2
42510;PMS7003;28141;51.120;17.114;2023-04-29T00:14:15;10;4;3
42510;PMS7003;28141;51.120;17.114;2023-04-29T00:17:30;12;5;4
42510;PMS7003;28141;51.120;17.114;2023-04-29T00:20:44;12;5;4
42510;PMS7003;28141;51.120;17.114;2023-04-29T00:23:58;12;5;3
42510;PMS7003;28141;51.120;17.114;2023-04-29T00:27:38;14;5;3
42510;PMS7003;28141;51.120;17.114;2023-04-29T00:30:53;12;5;3
42510;PMS7003;28141;51.120;17.114;2023-04-29T00:34:08;12;4;3
42510;PMS7003;28141;51.120;17.114;2023-04-29T00:37:22;12;5;4
42510;PMS7003;28141;51.120;17.114;2023-04-29T00:41:02;11;4;3
42510;PMS7003;28141;51.120;17.114;2023-04-29T00:44:16;12;6;4
42510;PMS7003;28141;51.120;17.114;2023-04-29T00:47:30;11;4;3
42510;PMS7003;28141;51.120;17.114;2023-04-29T00:50:44;12;6;4
42510;PMS7003;28141;51.120;17.114;2023-04-29T00:54:25;13;5;3
42510;PMS7003;28141;51.120;17.114;2023-04-29T00:57:39;12;4;3
42510;PMS7003;28141;51.120;17.114;2023-04-29T01:00:54;11;5;3
42510;PMS7003;28141;51.120;17.114;2023-04-29T01:04:09;13;5;4
42510;PMS7003;28141;51.120;17.114;2023-04-29T01:08:12;12;4;3
42510;PMS7003;28141;51.120;17.114;2023-04-29T01:11:14;12;4;3
42510;PMS7003;28141;51.120;17.114;2023-04-29T01:14:35;12;6;4
42510;PMS7003;28141;51.120;17.114;2023-04-29T01:18:26;12;5;4
42510;PMS7003;28141;51.120;17.114;2023-04-29T01:21:45;12;5;3
42510;PMS7003;28141;51.120;17.114;2023-04-29T01:25:01;12;5;4
42510;PMS7003;28141;51.120;17.114;2023-04-29T01:32:11;11;5;3
42510;PMS7003;28141;51.120;17.114;2023-04-29T01:35:49;12;5;4
42510;PMS7003;28141;51.120;17.114;2023-04-29T01:43:01;12;6;4
42510;PMS7003;28141;51.120;17.114;2023-04-29T01:46:16;13;5;4
42510;PMS7003;28141;51.120;17.114;2023-04-29T01:49:34;11;5;3
42510;PMS7003;28141;51.120;17.114;2023-04-29T01:53:16;13;5;4
42510;PMS7003;28141;51.120;17.114;2023-04-29T01:56:30;13;6;4
42510;PMS7003;28141;51.120;17.114;2023-04-29T01:59:44;12;6;4
42510;PMS7003;28141;51.120;17.114;2023-04-29T02:02:58;12;4;3
42510;PMS7003;28141;51.120;17.114;2023-04-29T02:06:38;13;5;4
42510;PMS7003;28141;51.120;17.114;2023-04-29T02:09:52;14;6;4
42510;PMS7003;28141;51.120;17.114;2023-04-29T02:13:06;12;5;3
42510;PMS7003;28141;51.120;17.114;2023-04-29T02:16:20;15;6;4
42510;PMS7003;28141;51.120;17.114;2023-04-29T02:20:01;15;6;3
42510;PMS7003;28141;51.120;17.114;2023-04-29T02:23:15;13;6;4
42510;PMS7003;28141;51.120;17.114;2023-04-29T02:26:29;12;5;4
42510;PMS7003;28141;51.120;17.114;2023-04-29T02:29:45;14;6;4
42510;PMS7003;28141;51.120;17.114;2023-04-29T02:33:25;12;5;4
42510;PMS7003;28141;51.120;17.114;2023-04-29T02:36:40;12;5;3
42510;PMS7003;28141;51.120;17.114;2023-04-29T02:39:54;13;6;4
42510;PMS7003;28141;51.120;17.114;2023-04-29T02:43:08;13;6;4
42510;PMS7003;28141;51.120;17.114;2023-04-29T02:46:48;13;5;4
42510;PMS7003;28141;51.120;17.114;2023-04-29T02:50:03;12;5;3
42510;PMS7003;28141;51.120;17.114;2023-04-29T02:53:18;14;6;4
42510;PMS7003;28141;51.120;17.114;2023-04-29T02:56:33;13;5;4
42510;PMS7003;28141;51.120;17.114;2023-04-29T03:00:14;14;8;4
42510;PMS7003;28141;51.120;17.114;2023-04-29T03:03:28;13;5;4
42510;PMS7003;28141;51.120;17.114;2023-04-29T03:06:42;13;7;4
42510;PMS7003;28141;51.120;17.114;2023-04-29T03:09:56;13;6;3
42510;PMS7003;28141;51.120;17.114;2023-04-29T03:13:37;13;5;4
42510;PMS7003;28141;51.120;17.114;2023-04-29T03:16:51;13;6;4
42510;PMS7003;28141;51.120;17.114;2023-04-29T03:20:05;14;7;5
42510;PMS7003;28141;51.120;17.114;2023-04-29T03:23:22;12;6;4
42510;PMS7003;28141;51.120;17.114;2023-04-29T03:27:05;13;6;5
42510;PMS7003;28141;51.120;17.114;2023-04-29T03:30:20;12;5;3
42510;PMS7003;28141;51.120;17.114;2023-04-29T03:33:34;13;5;4
42510;PMS7003;28141;51.120;17.114;2023-04-29T03:36:48;13;7;4
42510;PMS7003;28141;51.120;17.114;2023-04-29T03:40:30;15;7;4
42510;PMS7003;28141;51.120;17.114;2023-04-29T03:43:43;14;6;4
42510;PMS7003;28141;51.120;17.114;2023-04-29T03:46:57;12;5;4
42510;PMS7003;28141;51.120;17.114;2023-04-29T03:50:12;12;5;4
42510;PMS7003;28141;51.120;17.114;2023-04-29T03:53:52;13;6;3
42510;PMS7003;28141;51.120;17.114;2023-04-29T03:57:10;15;7;4
42510;PMS7003;28141;51.120;17.114;2023-04-29T04:00:23;12;6;4
42510;PMS7003;28141;51.120;17.114;2023-04-29T04:03:38;14;7;6
42510;PMS7003;28141;51.120;17.114;2023-04-29T04:07:18;15;8;4
42510;PMS7003;28141;51.120;17.114;2023-04-29T04:10:32;13;5;4
42510;PMS7003;28141;51.120;17.114;2023-04-29T04:13:46;12;5;4
42510;PMS7003;28141;51.120;17.114;2023-04-29T04:17:02;14;6;4
42510;PMS7003;28141;51.120;17.114;2023-04-29T04:20:44;14;7;5
42510;PMS7003;28141;51.120;17.114;2023-04-29T04:23:59;13;6;5
42510;PMS7003;28141;51.120;17.114;2023-04-29T04:27:13;14;6;4
42510;PMS7003;28141;51.120;17.114;2023-04-29T04:30:26;14;7;5
42510;PMS7003;28141;51.120;17.114;2023-04-29T04:34:06;12;5;4
42510;PMS7003;28141;51.120;17.114;2023-04-29T04:37:20;14;5;4
42510;PMS7003;28141;51.120;17.114;2023-04-29T04:40:35;13;6;5
42510;PMS7003;28141;51.120;17.114;2023-04-29T04:43:49;13;6;5
42510;PMS7003;28141;51.120;17.114;2023-04-29T04:47:29;13;7;4
42510;PMS7003;28141;51.120;17.114;2023-04-29T04:50:43;13;6;4
42510;PMS7003;28141;51.120;17.114;2023-04-29T04:53:57;13;7;4
42510;PMS7003;28141;51.120;17.114;2023-04-29T04:57:11;14;7;5
42510;PMS7003;28141;51.120;17.114;2023-04-29T05:00:51;15;7;5
42510;PMS7003;28141;51.120;17.114;2023-04-29T05:04:05;13;6;4
42510;PMS7003;28141;51.120;17.114;2023-04-29T05:07:19;13;7;5
42510;PMS7003;28141;51.120;17.114;2023-04-29T05:10:35;12;5;4
42510;PMS7003;28141;51.120;17.114;2023-04-29T05:14:15;13;6;4
42510;PMS7003;28141;51.120;17.114;2023-04-29T05:17:30;11;4;3
42510;PMS7003;28141;51.120;17.114;2023-04-29T05:20:44;13;6;4
42510;PMS7003;28141;51.120;17.114;2023-04-29T05:23:58;13;6;4
42510;PMS7003;28141;51.120;17.114;2023-04-29T05:27:38;14;6;5
42510;PMS7003;28141;51.120;17.114;2023-04-29T05:30:53;14;6;4
42510;PMS7003;28141;51.120;17.114;2023-04-29T05:34:07;14;6;4
42510;PMS7003;28141;51.120;17.114;2023-04-29T05:37:20;12;6;4
42510;PMS7003;28141;51.120;17.114;2023-04-29T05:41:01;13;6;4
42510;PMS7003;28141;51.120;17.114;2023-04-29T05:44:16;13;6;4
42510;PMS7003;28141;51.120;17.114;2023-04-29T05:47:30;14;7;4
42510;PMS7003;28141;51.120;17.114;2023-04-29T05:50:44;13;6;4
42510;PMS7003;28141;51.120;17.114;2023-04-29T05:54:26;12;5;4
42510;PMS7003;28141;51.120;17.114;2023-04-29T05:57:40;13;6;4
42510;PMS7003;28141;51.120;17.114;2023-04-29T06:00:54;13;6;4
42510;PMS7003;28141;51.120;17.114;2023-04-29T06:04:08;12;5;4
42510;PMS7003;28141;51.120;17.114;2023-04-29T06:07:48;13;6;4
42510;PMS7003;28141;51.120;17.114;2023-04-29T06:11:03;12;5;3
42510;PMS7003;28141;51.120;17.114;2023-04-29T06:14:18;14;6;3
42510;PMS7003;28141;51.120;17.114;2023-04-29T06:17:32;13;6;4
42510;PMS7003;28141;51.120;17.114;2023-04-29T06:21:12;12;5;3
42510;PMS7003;28141;51.120;17.114;2023-04-29T06:24:28;14;6;4
42510;PMS7003;28141;51.120;17.114;2023-04-29T06:27:41;13;6;4
42510;PMS7003;28141;51.120;17.114;2023-04-29T06:30:55;14;6;4
42510;PMS7003;28141;51.120;17.114;2023-04-29T06:34:36;11;4;3
42510;PMS7003;28141;51.120;17.114;2023-04-29T06:37:52;12;5;4
42510;PMS7003;28141;51.120;17.114;2023-04-29T06:41:08;14;6;4
42510;PMS7003;28141;51.120;17.114;2023-04-29T06:44:22;11;4;4
42510;PMS7003;28141;51.120;17.114;2023-04-29T06:48:02;13;6;4
42510;PMS7003;28141;51.120;17.114;2023-04-29T06:51:16;12;5;4
42510;PMS7003;28141;51.120;17.114;2023-04-29T06:54:31;12;5;4
42510;PMS7003;28141;51.120;17.114;2023-04-29T06:57:45;13;5;4
42510;PMS7003;28141;51.120;17.114;2023-04-29T07:01:25;13;6;3
42510;PMS7003;28141;51.120;17.114;2023-04-29T07:04:39;13;6;4
42510;PMS7003;28141;51.120;17.114;2023-04-29T07:07:53;12;5;3
42510;PMS7003;28141;51.120;17.114;2023-04-29T07:11:07;12;5;4
42510;PMS7003;28141;51.120;17.114;2023-04-29T07:14:47;11;4;3
42510;PMS7003;28141;51.120;17.114;2023-04-29T07:18:04;11;5;3
42510;PMS7003;28141;51.120;17.114;2023-04-29T07:21:19;13;5;4
42510;PMS7003;28141;51.120;17.114;2023-04-29T07:24:32;13;6;5
42510;PMS7003;28141;51.120;17.114;2023-04-29T07:28:12;12;6;4
42510;PMS7003;28141;51.120;17.114;2023-04-29T07:31:26;13;6;3
42510;PMS7003;28141;51.120;17.114;2023-04-29T07:34:41;12;6;4
42510;PMS7003;28141;51.120;17.114;2023-04-29T07:37:55;13;6;5
42510;PMS7003;28141;51.120;17.114;2023-04-29T07:41:36;12;6;4
42510;PMS7003;28141;51.120;17.114;2023-04-29T07:44:49;13;5;4
42510;PMS7003;28141;51.120;17.114;2023-04-29T07:48:04;14;7;4
42510;PMS7003;28141;51.120;17.114;2023-04-29T07:51:18;13;6;5
42510;PMS7003;28141;51.120;17.114;2023-04-29T07:55:00;12;5;4
42510;PMS7003;28141;51.120;17.114;2023-04-29T07:58:14;12;5;4
42510;PMS7003;28141;51.120;17.114;2023-04-29T08:01:28;13;5;4
42510;PMS7003;28141;51.120;17.114;2023-04-29T08:04:42;11;5;3
42510;PMS7003;28141;51.120;17.114;2023-04-29T08:08:23;12;5;4
42510;PMS7003;28141;51.120;17.114;2023-04-29T08:11:37;13;6;4
42510;PMS7003;28141;51.120;17.114;2023-04-29T08:14:52;13;6;3
42510;PMS7003;28141;51.120;17.114;2023-04-29T08:18:06;13;6;4
42510;PMS7003;28141;51.120;17.114;2023-04-29T08:21:46;13;6;4
42510;PMS7003;28141;51.120;17.114;2023-04-29T08:25:00;12;5;4
42510;PMS7003;28141;51.120;17.114;2023-04-29T08:28:17;12;5;3
42510;PMS7003;28141;51.120;17.114;2023-04-29T08:31:31;12;6;5
42510;PMS7003;28141;51.120;17.114;2023-04-29T08:35:12;13;6;5
42510;PMS7003;28141;51.120;17.114;2023-04-29T08:38:27;12;5;4
42510;PMS7003;28141;51.120;17.114;2023-04-29T08:41:41;13;5;4
42510;PMS7003;28141;51.120;17.114;2023-04-29T08:45:02;12;5;3
42510;PMS7003;28141;51.120;17.114;2023-04-29T08:48:44;12;5;4
42510;PMS7003;28141;51.120;17.114;2023-04-29T08:51:59;11;4;3
42510;PMS7003;28141;51.120;17.114;2023-04-29T08:55:14;13;6;5
42510;PMS7003;28141;51.120;17.114;2023-04-29T08:58:30;11;4;3
42510;PMS7003;28141;51.120;17.114;2023-04-29T09:02:15;13;5;4
42510;PMS7003;28141;51.120;17.114;2023-04-29T09:05:31;13;6;4
42510;PMS7003;28141;51.120;17.114;2023-04-29T09:08:48;12;5;4
42510;PMS7003;28141;51.120;17.114;2023-04-29T09:12:02;12;5;4
42510;PMS7003;28141;51.120;17.114;2023-04-29T09:15:43;12;5;4
42510;PMS7003;28141;51.120;17.114;2023-04-29T09:18:56;11;5;3
42510;PMS7003;28141;51.120;17.114;2023-04-29T09:22:10;12;5;4
42510;PMS7003;28141;51.120;17.114;2023-04-29T09:25:24;13;5;3
42510;PMS7003;28141;51.120;17.114;2023-04-29T09:29:06;12;5;3
42510;PMS7003;28141;51.120;17.114;2023-04-29T09:32:25;13;6;4
42510;PMS7003;28141;51.120;17.114;2023-04-29T09:35:39;12;4;3
42510;PMS7003;28141;51.120;17.114;2023-04-29T09:38:54;13;5;4
42510;PMS7003;28141;51.120;17.114;2023-04-29T09:45:56;11;5;3
42510;PMS7003;28141;51.120;17.114;2023-04-29T09:53:03;12;5;3
42510;PMS7003;28141;51.120;17.114;2023-04-29T09:56:21;12;4;3
42510;PMS7003;28141;51.120;17.114;2023-04-29T09:59:39;11;4;3
42510;PMS7003;28141;51.120;17.114;2023-04-29T10:02:54;12;6;3
42510;PMS7003;28141;51.120;17.114;2023-04-29T10:06:42;11;5;3
42510;PMS7003;28141;51.120;17.114;2023-04-29T10:09:58;11;5;2
42510;PMS7003;28141;51.120;17.114;2023-04-29T10:13:12;11;4;3
42510;PMS7003;28141;51.120;17.114;2023-04-29T10:16:30;11;4;3
42510;PMS7003;28141;51.120;17.114;2023-04-29T10:21:45;12;5;3
42510;PMS7003;28141;51.120;17.114;2023-04-29T10:25:02;12;5;3
42510;PMS7003;28141;51.120;17.114;2023-04-29T10:28:19;11;4;3
42510;PMS7003;28141;51.120;17.114;2023-04-29T10:31:35;13;5;3
42510;PMS7003;28141;51.120;17.114;2023-04-29T10:35:19;11;4;3
42510;PMS7003;28141;51.120;17.114;2023-04-29T10:38:41;11;4;3
42510;PMS7003;28141;51.120;17.114;2023-04-29T10:42:05;12;3;2
42510;PMS7003;28141;51.120;17.114;2023-04-29T10:49:22;13;5;4
42510;PMS7003;28141;51.120;17.114;2023-04-29T10:59:53;11;4;3
42510;PMS7003;28141;51.120;17.114;2023-04-29T11:03:07;10;4;2
42510;PMS7003;28141;51.120;17.114;2023-04-29T11:06:55;13;4;2
42510;PMS7003;28141;51.120;17.114;2023-04-29T11:10:11;11;4;3
42510;PMS7003;28141;51.120;17.114;2023-04-29T11:13:26;12;5;3
42510;PMS7003;28141;51.120;17.114;2023-04-29T11:20:52;11;4;2
42510;PMS7003;28141;51.120;17.114;2023-04-29T11:23:57;10;3;2
42510;PMS7003;28141;51.120;17.114;2023-04-29T11:27:14;12;4;3
42510;PMS7003;28141;51.120;17.114;2023-04-29T11:30:55;10;3;2
42510;PMS7003;28141;51.120;17.114;2023-04-29T11:34:10;10;4;3
42510;PMS7003;28141;51.120;17.114;2023-04-29T11:37:25;10;4;2
42510;PMS7003;28141;51.120;17.114;2023-04-29T11:44:28;10;3;2
42510;PMS7003;28141;51.120;17.114;2023-04-29T11:47:43;11;4;3
42510;PMS7003;28141;51.120;17.114;2023-04-29T11:50:58;11;4;3
42510;PMS7003;28141;51.120;17.114;2023-04-29T11:54:12;11;5;3
42510;PMS7003;28141;51.120;17.114;2023-04-29T11:57:52;10;3;2
42510;PMS7003;28141;51.120;17.114;2023-04-29T12:01:06;10;3;2
42510;PMS7003;28141;51.120;17.114;2023-04-29T12:04:20;10;3;3
42510;PMS7003;28141;51.120;17.114;2023-04-29T12:07:34;9;2;2
42510;PMS7003;28141;51.120;17.114;2023-04-29T12:11:15;10;3;3
42510;PMS7003;28141;51.120;17.114;2023-04-29T12:14:30;11;4;3
42510;PMS7003;28141;51.120;17.114;2023-04-29T12:17:44;10;3;2
42510;PMS7003;28141;51.120;17.114;2023-04-29T12:20:59;11;4;2
42510;PMS7003;28141;51.120;17.114;2023-04-29T12:24:39;11;3;2
42510;PMS7003;28141;51.120;17.114;2023-04-29T12:27:58;11;4;2
42510;PMS7003;28141;51.120;17.114;2023-04-29T12:31:13;10;4;2
42510;PMS7003;28141;51.120;17.114;2023-04-29T12:34:29;9;3;2
42510;PMS7003;28141;51.120;17.114;2023-04-29T12:38:09;9;3;2
42510;PMS7003;28141;51.120;17.114;2023-04-29T12:44:52;10;2;2
42510;PMS7003;28141;51.120;17.114;2023-04-29T12:48:32;10;4;2
42510;PMS7003;28141;51.120;17.114;2023-04-29T12:51:50;10;3;2
42510;PMS7003;28141;51.120;17.114;2023-04-29T12:55:04;10;4;3
42510;PMS7003;28141;51.120;17.114;2023-04-29T12:58:19;9;2;1
42510;PMS7003;28141;51.120;17.114;2023-04-29T13:01:59;12;3;2
42510;PMS7003;28141;51.120;17.114;2023-04-29T13:05:14;10;3;2
42510;PMS7003;28141;51.120;17.114;2023-04-29T13:08:28;10;3;2
42510;PMS7003;28141;51.120;17.114;2023-04-29T13:11:42;11;3;2
42510;PMS7003;28141;51.120;17.114;2023-04-29T13:15:22;10;2;2
42510;PMS7003;28141;51.120;17.114;2023-04-29T13:18:36;11;3;2
42510;PMS7003;28141;51.120;17.114;2023-04-29T13:21:50;10;3;2
42510;PMS7003;28141;51.120;17.114;2023-04-29T13:25:05;10;3;2
42510;PMS7003;28141;51.120;17.114;2023-04-29T13:28:46;10;4;2
42510;PMS7003;28141;51.120;17.114;2023-04-29T13:32:00;10;4;2
42510;PMS7003;28141;51.120;17.114;2023-04-29T13:35:13;10;3;2
42510;PMS7003;28141;51.120;17.114;2023-04-29T13:38:28;12;5;2
42510;PMS7003;28141;51.120;17.114;2023-04-29T13:42:08;10;2;2
42510;PMS7003;28141;51.120;17.114;2023-04-29T13:45:22;9;2;2
42510;PMS7003;28141;51.120;17.114;2023-04-29T13:48:36;9;3;2
42510;PMS7003;28141;51.120;17.114;2023-04-29T13:51:51;11;3;2
42510;PMS7003;28141;51.120;17.114;2023-04-29T13:55:31;10;3;2
42510;PMS7003;28141;51.120;17.114;2023-04-29T13:58:47;9;3;2
42510;PMS7003;28141;51.120;17.114;2023-04-29T14:02:02;9;3;2
42510;PMS7003;28141;51.120;17.114;2023-04-29T14:05:16;9;3;2
42510;PMS7003;28141;51.120;17.114;2023-04-29T14:08:56;9;2;1
42510;PMS7003;28141;51.120;17.114;2023-04-29T14:12:11;10;3;1
42510;PMS7003;28141;51.120;17.114;2023-04-29T14:15:25;9;3;2
42510;PMS7003;28141;51.120;17.114;2023-04-29T14:18:39;9;3;1
42510;PMS7003;28141;51.120;17.114;2023-04-29T14:22:20;9;2;1
42510;PMS7003;28141;51.120;17.114;2023-04-29T14:25:34;9;3;2
42510;PMS7003;28141;51.120;17.114;2023-04-29T14:28:48;8;2;1
42510;PMS7003;28141;51.120;17.114;2023-04-29T14:32:09;10;3;2
42510;PMS7003;28141;51.120;17.114;2023-04-29T14:35:49;9;2;1
42510;PMS7003;28141;51.120;17.114;2023-04-29T14:39:03;10;3;2
42510;PMS7003;28141;51.120;17.114;2023-04-29T14:42:17;10;4;2
42510;PMS7003;28141;51.120;17.114;2023-04-29T14:45:31;9;2;1
42510;PMS7003;28141;51.120;17.114;2023-04-29T14:49:11;9;2;2
42510;PMS7003;28141;51.120;17.114;2023-04-29T14:52:26;9;2;1
42510;PMS7003;28141;51.120;17.114;2023-04-29T14:55:40;9;3;2
42510;PMS7003;28141;51.120;17.114;2023-04-29T14:58:54;9;3;1
42510;PMS7003;28141;51.120;17.114;2023-04-29T15:02:34;9;3;2
42510;PMS7003;28141;51.120;17.114;2023-04-29T15:05:48;9;2;1
42510;PMS7003;28141;51.120;17.114;2023-04-29T15:09:03;8;2;1
42510;PMS7003;28141;51.120;17.114;2023-04-29T15:12:17;8;2;1
42510;PMS7003;28141;51.120;17.114;2023-04-29T15:15:59;9;3;2
42510;PMS7003;28141;51.120;17.114;2023-04-29T15:19:13;9;3;2
42510;PMS7003;28141;51.120;17.114;2023-04-29T15:22:27;9;2;1
42510;PMS7003;28141;51.120;17.114;2023-04-29T15:25:41;10;3;1
42510;PMS7003;28141;51.120;17.114;2023-04-29T15:29:21;9;3;1
42510;PMS7003;28141;51.120;17.114;2023-04-29T15:32:35;8;2;1
42510;PMS7003;28141;51.120;17.114;2023-04-29T15:35:49;9;3;1
42510;PMS7003;28141;51.120;17.114;2023-04-29T15:39:03;10;4;2
42510;PMS7003;28141;51.120;17.114;2023-04-29T15:42:43;10;4;2
42510;PMS7003;28141;51.120;17.114;2023-04-29T15:45:58;8;2;1
42510;PMS7003;28141;51.120;17.114;2023-04-29T15:49:12;8;1;1
42510;PMS7003;28141;51.120;17.114;2023-04-29T15:52:26;10;2;1
42510;PMS7003;28141;51.120;17.114;2023-04-29T15:56:06;10;3;2
42510;PMS7003;28141;51.120;17.114;2023-04-29T15:59:20;10;2;2
42510;PMS7003;28141;51.120;17.114;2023-04-29T16:02:34;9;2;1
42510;PMS7003;28141;51.120;17.114;2023-04-29T16:05:50;10;3;2
42510;PMS7003;28141;51.120;17.114;2023-04-29T16:09:31;10;4;2
42510;PMS7003;28141;51.120;17.114;2023-04-29T16:12:45;9;3;2
42510;PMS7003;28141;51.120;17.114;2023-04-29T16:15:59;10;3;2
42510;PMS7003;28141;51.120;17.114;2023-04-29T16:19:14;9;2;1
42510;PMS7003;28141;51.120;17.114;2023-04-29T16:22:54;10;4;2
42510;PMS7003;28141;51.120;17.114;2023-04-29T16:26:08;8;2;2
42510;PMS7003;28141;51.120;17.114;2023-04-29T16:29:22;10;3;1
42510;PMS7003;28141;51.120;17.114;2023-04-29T16:32:37;10;3;2
42510;PMS7003;28141;51.120;17.114;2023-04-29T16:36:20;10;2;2
42510;PMS7003;28141;51.120;17.114;2023-04-29T16:39:35;9;2;2
42510;PMS7003;28141;51.120;17.114;2023-04-29T16:42:49;10;3;2
42510;PMS7003;28141;51.120;17.114;2023-04-29T16:46:05;9;2;1
42510;PMS7003;28141;51.120;17.114;2023-04-29T16:49:47;10;3;2
42510;PMS7003;28141;51.120;17.114;2023-04-29T16:53:02;9;3;2
42510;PMS7003;28141;51.120;17.114;2023-04-29T16:56:16;9;3;3
42510;PMS7003;28141;51.120;17.114;2023-04-29T16:59:31;10;3;3
42510;PMS7003;28141;51.120;17.114;2023-04-29T17:03:11;12;4;3
42510;PMS7003;28141;51.120;17.114;2023-04-29T17:06:25;10;4;2
42510;PMS7003;28141;51.120;17.114;2023-04-29T17:09:46;10;3;2
42510;PMS7003;28141;51.120;17.114;2023-04-29T17:13:00;10;3;2
42510;PMS7003;28141;51.120;17.114;2023-04-29T17:16:41;9;2;2
42510;PMS7003;28141;51.120;17.114;2023-04-29T17:19:54;9;3;2
42510;PMS7003;28141;51.120;17.114;2023-04-29T17:23:09;11;4;3
42510;PMS7003;28141;51.120;17.114;2023-04-29T17:26:23;9;3;2
42510;PMS7003;28141;51.120;17.114;2023-04-29T17:30:03;11;4;3
42510;PMS7003;28141;51.120;17.114;2023-04-29T17:33:19;10;4;3
42510;PMS7003;28141;51.120;17.114;2023-04-29T17:36:34;11;4;3
42510;PMS7003;28141;51.120;17.114;2023-04-29T17:39:49;11;4;2
42510;PMS7003;28141;51.120;17.114;2023-04-29T17:43:33;10;3;2
42510;PMS7003;28141;51.120;17.114;2023-04-29T17:46:48;10;3;2
42510;PMS7003;28141;51.120;17.114;2023-04-29T17:50:02;9;2;1
42510;PMS7003;28141;51.120;17.114;2023-04-29T17:53:16;9;2;2
42510;PMS7003;28141;51.120;17.114;2023-04-29T17:56:57;10;4;2
42510;PMS7003;28141;51.120;17.114;2023-04-29T18:00:13;10;3;2
42510;PMS7003;28141;51.120;17.114;2023-04-29T18:03:28;10;3;2
42510;PMS7003;28141;51.120;17.114;2023-04-29T18:06:43;10;4;3
42510;PMS7003;28141;51.120;17.114;2023-04-29T18:10:23;11;4;2
42510;PMS7003;28141;51.120;17.114;2023-04-29T18:13:38;12;6;3
42510;PMS7003;28141;51.120;17.114;2023-04-29T18:16:53;10;4;2
42510;PMS7003;28141;51.120;17.114;2023-04-29T18:20:08;10;3;2
42510;PMS7003;28141;51.120;17.114;2023-04-29T18:23:23;10;4;2
42510;PMS7003;28141;51.120;17.114;2023-04-29T18:27:03;10;2;1
42510;PMS7003;28141;51.120;17.114;2023-04-29T18:30:18;11;4;2
42510;PMS7003;28141;51.120;17.114;2023-04-29T18:33:32;11;4;2
42510;PMS7003;28141;51.120;17.114;2023-04-29T18:36:48;11;3;2
42510;PMS7003;28141;51.120;17.114;2023-04-29T18:40:30;11;4;2
42510;PMS7003;28141;51.120;17.114;2023-04-29T18:43:44;13;6;4
42510;PMS7003;28141;51.120;17.114;2023-04-29T18:46:58;11;5;3
42510;PMS7003;28141;51.120;17.114;2023-04-29T18:50:12;10;4;3
42510;PMS7003;28141;51.120;17.114;2023-04-29T18:53:52;12;5;4
42510;PMS7003;28141;51.120;17.114;2023-04-29T18:57:07;13;5;3
42510;PMS7003;28141;51.120;17.114;2023-04-29T19:00:21;15;7;4
42510;PMS7003;28141;51.120;17.114;2023-04-29T19:03:36;13;6;4
42510;PMS7003;28141;51.120;17.114;2023-04-29T19:07:16;13;6;4
42510;PMS7003;28141;51.120;17.114;2023-04-29T19:10:31;14;7;5
42510;PMS7003;28141;51.120;17.114;2023-04-29T19:13:44;14;7;4
42510;PMS7003;28141;51.120;17.114;2023-04-29T19:16:59;13;6;5
42510;PMS7003;28141;51.120;17.114;2023-04-29T19:20:39;14;7;4
42510;PMS7003;28141;51.120;17.114;2023-04-29T19:23:54;13;6;4
42510;PMS7003;28141;51.120;17.114;2023-04-29T19:27:08;14;8;5
42510;PMS7003;28141;51.120;17.114;2023-04-29T19:30:23;14;8;4
42510;PMS7003;28141;51.120;17.114;2023-04-29T19:34:05;15;6;5
42510;PMS7003;28141;51.120;17.114;2023-04-29T19:37:20;15;7;5
42510;PMS7003;28141;51.120;17.114;2023-04-29T19:40:34;12;5;4
42510;PMS7003;28141;51.120;17.114;2023-04-29T19:43:48;14;8;6
42510;PMS7003;28141;51.120;17.114;2023-04-29T19:47:28;15;8;5
42510;PMS7003;28141;51.120;17.114;2023-04-29T19:50:42;14;7;5
42510;PMS7003;28141;51.120;17.114;2023-04-29T19:53:57;15;8;5
42510;PMS7003;28141;51.120;17.114;2023-04-29T19:57:14;16;8;6
42510;PMS7003;28141;51.120;17.114;2023-04-29T20:00:54;15;8;5
42510;PMS7003;28141;51.120;17.114;2023-04-29T20:04:08;14;8;5
42510;PMS7003;28141;51.120;17.114;2023-04-29T20:07:22;16;9;7
42510;PMS7003;28141;51.120;17.114;2023-04-29T20:10:36;17;10;7
42510;PMS7003;28141;51.120;17.114;2023-04-29T20:14:17;15;7;6
42510;PMS7003;28141;51.120;17.114;2023-04-29T20:17:31;16;9;6
42510;PMS7003;28141;51.120;17.114;2023-04-29T20:20:45;15;8;6
42510;PMS7003;28141;51.120;17.114;2023-04-29T20:23:59;17;10;7
42510;PMS7003;28141;51.120;17.114;2023-04-29T20:27:39;16;9;6
42510;PMS7003;28141;51.120;17.114;2023-04-29T20:30:53;18;11;8
42510;PMS7003;28141;51.120;17.114;2023-04-29T20:34:08;19;12;7
42510;PMS7003;28141;51.120;17.114;2023-04-29T20:37:23;18;10;7
42510;PMS7003;28141;51.120;17.114;2023-04-29T20:41:02;17;10;7
42510;PMS7003;28141;51.120;17.114;2023-04-29T20:44:20;18;10;8
42510;PMS7003;28141;51.120;17.114;2023-04-29T20:47:35;19;11;8
42510;PMS7003;28141;51.120;17.114;2023-04-29T20:50:49;16;9;7
42510;PMS7003;28141;51.120;17.114;2023-04-29T20:54:29;19;11;7
42510;PMS7003;28141;51.120;17.114;2023-04-29T20:57:43;19;12;7
42510;PMS7003;28141;51.120;17.114;2023-04-29T21:00:57;17;10;7
42510;PMS7003;28141;51.120;17.114;2023-04-29T21:04:11;18;12;8
42510;PMS7003;28141;51.120;17.114;2023-04-29T21:07:51;20;13;8
42510;PMS7003;28141;51.120;17.114;2023-04-29T21:11:05;17;10;7
42510;PMS7003;28141;51.120;17.114;2023-04-29T21:14:21;20;11;8
42510;PMS7003;28141;51.120;17.114;2023-04-29T21:17:35;19;11;7
42510;PMS7003;28141;51.120;17.114;2023-04-29T21:21:14;16;9;7
42510;PMS7003;28141;51.120;17.114;2023-04-29T21:24:28;17;10;7
42510;PMS7003;28141;51.120;17.114;2023-04-29T21:27:44;20;11;8
42510;PMS7003;28141;51.120;17.114;2023-04-29T21:30:58;15;9;6
42510;PMS7003;28141;51.120;17.114;2023-04-29T21:34:36;18;11;7
42510;PMS7003;28141;51.120;17.114;2023-04-29T21:37:50;18;10;7
42510;PMS7003;28141;51.120;17.114;2023-04-29T21:41:04;16;10;7
42510;PMS7003;28141;51.120;17.114;2023-04-29T21:44:23;20;12;8
42510;PMS7003;28141;51.120;17.114;2023-04-29T21:48:06;18;10;7
42510;PMS7003;28141;51.120;17.114;2023-04-29T21:51:27;17;10;7
42510;PMS7003;28141;51.120;17.114;2023-04-29T21:54:43;18;11;7
42510;PMS7003;28141;51.120;17.114;2023-04-29T21:58:23;18;11;8
42510;PMS7003;28141;51.120;17.114;2023-04-29T22:01:37;16;10;6
42510;PMS7003;28141;51.120;17.114;2023-04-29T22:05:00;18;11;8
42510;PMS7003;28141;51.120;17.114;2023-04-29T22:08:14;16;9;6
42510;PMS7003;28141;51.120;17.114;2023-04-29T22:11:54;18;9;7
42510;PMS7003;28141;51.120;17.114;2023-04-29T22:15:08;19;11;6
42510;PMS7003;28141;51.120;17.114;2023-04-29T22:18:23;18;9;7
42510;PMS7003;28141;51.120;17.114;2023-04-29T22:21:37;18;11;5
42510;PMS7003;28141;51.120;17.114;2023-04-29T22:25:19;18;9;7
42510;PMS7003;28141;51.120;17.114;2023-04-29T22:28:33;18;11;8
42510;PMS7003;28141;51.120;17.114;2023-04-29T22:31:47;16;9;6